createdAt,value
2022-08-16T00:00:22.572Z,8.25
2022-08-16T00:02:52.236Z,9.55
2022-08-16T00:05:23.198Z,8.80
2022-08-16T00:07:56.518Z,9.82
2022-08-16T00:10:33.113Z,8.32
2022-08-16T00:13:02.338Z,8.73
2022-08-16T00:15:50.973Z,7.60
2022-08-16T00:18:22.303Z,8.75
2022-08-16T00:20:58.956Z,8.43
2022-08-16T00:23:39.959Z,8.95
2022-08-16T00:26:35.716Z,9.25
2022-08-16T00:28:59.254Z,9.60
2022-08-16T00:31:27.781Z,9.80
2022-08-16T00:34:18.370Z,10.18
2022-08-16T00:36:47.671Z,10.02
2022-08-16T00:39:17.945Z,9.15
2022-08-16T00:41:51.230Z,10.18
2022-08-16T00:44:23.150Z,9.98
2022-08-16T00:47:08.577Z,9.35
2022-08-16T00:49:39.325Z,10.40
2022-08-16T00:52:29.231Z,9.00
2022-08-16T00:54:56.780Z,9.63
2022-08-16T00:57:26.938Z,9.65
2022-08-16T01:00:19.850Z,9.80
2022-08-16T01:02:49.068Z,9.15
2022-08-16T01:05:17.976Z,11.02
2022-08-16T01:07:51.294Z,10.50
2022-08-16T01:10:21.141Z,11.05
2022-08-16T01:13:08.156Z,10.27
2022-08-16T01:15:43.313Z,10.90
2022-08-16T01:18:38.966Z,10.50
2022-08-16T01:21:22.541Z,10.68
2022-08-16T01:24:52.295Z,10.35
2022-08-16T01:27:18.098Z,9.50
2022-08-16T01:29:58.460Z,10.13
2022-08-16T01:32:33.751Z,9.77
2022-08-16T01:35:08.706Z,10.05
2022-08-16T01:37:53.012Z,11.00
2022-08-16T01:40:30.260Z,10.13
2022-08-16T01:42:59.648Z,10.98
2022-08-16T01:45:39.598Z,10.65
2022-08-16T01:48:19.844Z,10.88
2022-08-16T01:51:09.519Z,10.98
2022-08-16T01:53:42.122Z,10.40
2022-08-16T01:56:29.704Z,11.60
2022-08-16T01:59:01.699Z,10.32
2022-08-16T02:01:32.129Z,11.63
2022-08-16T02:04:10.218Z,10.27
2022-08-16T02:06:45.931Z,10.55
2022-08-16T02:09:17.765Z,10.75
2022-08-16T02:11:53.671Z,11.25
2022-08-16T02:14:26.707Z,9.90
2022-08-16T02:16:58.537Z,10.68
2022-08-16T02:20:00.222Z,10.68
2022-08-16T02:22:35.775Z,12.40
2022-08-16T02:25:10.782Z,10.90
2022-08-16T02:27:41.824Z,10.63
2022-08-16T02:30:35.887Z,10.98
2022-08-16T02:33:05.553Z,10.27
2022-08-16T02:35:54.231Z,10.68
2022-08-16T02:38:27.736Z,10.45
2022-08-16T02:40:56.589Z,11.23
2022-08-16T02:43:33.255Z,10.35
2022-08-16T02:46:07.730Z,10.88
2022-08-16T02:48:39.847Z,10.02
2022-08-16T02:51:18.303Z,11.52
2022-08-16T02:53:53.657Z,11.07
2022-08-16T02:56:25.002Z,10.65
2022-08-16T02:59:02.780Z,10.13
2022-08-16T03:01:41.580Z,11.13
2022-08-16T03:04:41.394Z,10.48
2022-08-16T03:07:06.218Z,10.07
2022-08-16T03:09:44.585Z,10.65
2022-08-16T03:12:16.477Z,11.07
2022-08-16T03:14:47.918Z,11.02
2022-08-16T03:17:19.562Z,11.02
2022-08-16T03:20:00.200Z,10.73
2022-08-16T03:22:36.131Z,12.25
2022-08-16T03:25:13.989Z,9.95
2022-08-16T03:27:50.214Z,11.65
2022-08-16T03:30:24.469Z,10.55
2022-08-16T03:33:01.166Z,11.15
2022-08-16T03:35:40.279Z,10.27
2022-08-16T03:38:34.310Z,10.50
2022-08-16T03:41:24.170Z,10.18
2022-08-16T03:43:58.649Z,10.93
2022-08-16T03:46:47.185Z,10.80
2022-08-16T03:49:17.970Z,11.77
2022-08-16T03:51:49.168Z,10.70
2022-08-16T03:54:23.514Z,9.77
2022-08-16T03:56:58.099Z,9.40
2022-08-16T03:59:31.324Z,10.70
2022-08-16T04:02:12.078Z,11.32
2022-08-16T04:04:53.917Z,9.98
2022-08-16T04:07:24.734Z,10.32
2022-08-16T04:09:54.030Z,10.18
2022-08-16T04:12:53.274Z,10.05
2022-08-16T04:15:16.805Z,10.13
2022-08-16T04:17:56.364Z,10.73
2022-08-16T04:20:33.601Z,12.20
2022-08-16T04:23:05.306Z,10.45
2022-08-16T04:25:35.166Z,10.88
2022-08-16T04:28:29.350Z,9.98
2022-08-16T04:30:53.562Z,10.52
2022-08-16T04:33:26.989Z,11.00
2022-08-16T04:35:58.972Z,11.02
2022-08-16T04:38:30.581Z,10.77
2022-08-16T04:40:59.957Z,11.18
2022-08-16T04:43:29.364Z,10.13
2022-08-16T04:46:00.307Z,10.15
2022-08-16T04:48:33.877Z,11.18
2022-08-16T04:51:07.929Z,9.45
2022-08-16T04:53:45.319Z,9.18
2022-08-16T04:56:17.022Z,11.10
2022-08-16T04:58:47.033Z,9.93
2022-08-16T05:01:19.897Z,11.82
2022-08-16T05:04:00.014Z,11.55
2022-08-16T05:06:45.393Z,10.45
2022-08-16T05:09:22.891Z,10.20
2022-08-16T05:11:53.104Z,11.95
2022-08-16T05:14:45.847Z,11.18
2022-08-16T05:17:18.217Z,10.25
2022-08-16T05:19:58.026Z,9.77
2022-08-16T05:22:31.520Z,10.85
2022-08-16T05:25:09.100Z,12.15
2022-08-16T05:27:42.747Z,11.38
2022-08-16T05:30:35.645Z,11.60
2022-08-16T05:33:06.718Z,11.40
2022-08-16T05:35:39.267Z,12.88
2022-08-16T05:38:32.464Z,13.55
2022-08-16T05:41:06.801Z,13.77
2022-08-16T05:43:43.765Z,10.65
2022-08-16T05:46:28.629Z,10.95
2022-08-16T05:49:06.000Z,11.15
2022-08-16T05:51:40.210Z,10.32
2022-08-16T05:54:13.956Z,10.65
2022-08-16T05:56:46.035Z,11.45
2022-08-16T05:59:22.183Z,15.35
2022-08-16T06:01:52.182Z,13.80
2022-08-16T06:04:35.120Z,13.95
2022-08-16T06:07:24.211Z,15.15
2022-08-16T06:10:00.124Z,12.80
2022-08-16T06:12:32.393Z,14.90
2022-08-16T06:15:11.616Z,11.88
2022-08-16T06:17:44.697Z,9.88
2022-08-16T06:20:35.456Z,12.20
2022-08-16T06:23:20.562Z,11.32
2022-08-16T06:26:09.866Z,11.65
2022-08-16T06:28:45.139Z,12.23
2022-08-16T06:31:24.890Z,10.57
2022-08-16T06:33:55.089Z,10.80
2022-08-16T06:36:24.649Z,11.88
2022-08-16T06:39:15.326Z,10.98
2022-08-16T06:41:49.459Z,11.82
2022-08-16T06:44:30.538Z,10.55
2022-08-16T06:47:03.749Z,11.60
2022-08-16T06:49:32.913Z,10.07
2022-08-16T06:52:03.419Z,10.63
2022-08-16T06:54:39.793Z,10.50
2022-08-16T06:57:16.877Z,11.20
2022-08-16T06:59:52.071Z,10.95
2022-08-16T07:02:32.448Z,12.70
2022-08-16T07:05:03.148Z,12.10
2022-08-16T07:07:51.001Z,16.73
2022-08-16T07:10:25.859Z,11.65
2022-08-16T07:13:04.672Z,12.43
2022-08-16T07:15:50.376Z,14.18
2022-08-16T07:18:21.876Z,12.13
2022-08-16T07:20:54.234Z,12.50
2022-08-16T07:23:36.967Z,12.27
2022-08-16T07:26:25.284Z,11.25
2022-08-16T07:28:54.576Z,11.18
2022-08-16T07:31:24.557Z,10.02
2022-08-16T07:34:10.053Z,11.73
2022-08-16T07:36:39.856Z,10.32
2022-08-16T07:39:09.642Z,10.18
2022-08-16T07:41:44.777Z,14.50
2022-08-16T07:44:15.326Z,10.05
2022-08-16T07:46:45.334Z,10.43
2022-08-16T07:49:21.641Z,11.48
2022-08-16T07:51:50.190Z,10.52
2022-08-16T07:54:32.392Z,10.98
2022-08-16T07:57:12.913Z,12.90
2022-08-16T07:59:45.557Z,12.32
2022-08-16T08:02:19.713Z,11.98
2022-08-16T08:04:49.017Z,10.95
2022-08-16T08:07:17.869Z,13.00
2022-08-16T08:09:47.155Z,10.80
2022-08-16T08:12:32.099Z,12.02
2022-08-16T08:15:13.153Z,10.65
2022-08-16T08:17:45.147Z,10.05
2022-08-16T08:20:26.723Z,11.85
2022-08-16T08:23:02.866Z,10.07
2022-08-16T08:25:53.745Z,12.30
2022-08-16T08:28:26.270Z,11.13
2022-08-16T08:31:02.450Z,9.25
2022-08-16T08:33:34.780Z,8.45
2022-08-16T08:36:11.467Z,9.23
2022-08-16T08:38:52.359Z,11.90
2022-08-16T08:41:27.315Z,9.18
2022-08-16T08:43:59.659Z,9.88
2022-08-16T08:46:35.751Z,9.75
2022-08-16T08:49:07.905Z,9.27
2022-08-16T08:51:42.008Z,9.32
2022-08-16T08:54:18.824Z,8.50
2022-08-16T08:56:53.605Z,9.15
2022-08-16T08:59:56.073Z,9.65
2022-08-16T09:02:26.216Z,9.20
2022-08-16T09:04:59.351Z,9.88
2022-08-16T09:07:28.421Z,9.68
2022-08-16T09:10:00.894Z,9.05
2022-08-16T09:12:37.388Z,10.18
2022-08-16T09:15:13.806Z,8.93
2022-08-16T09:17:51.598Z,8.50
2022-08-16T09:20:23.724Z,8.65
2022-08-16T09:22:55.340Z,8.07
2022-08-16T09:25:35.394Z,8.63
2022-08-16T09:28:10.341Z,8.73
2022-08-16T09:30:59.422Z,10.05
2022-08-16T09:33:28.480Z,8.30
2022-08-16T09:36:12.347Z,9.63
2022-08-16T09:38:59.849Z,8.20
2022-08-16T09:41:30.049Z,8.98
2022-08-16T09:44:02.406Z,10.63
2022-08-16T09:46:49.933Z,9.15
2022-08-16T09:49:21.084Z,8.85
2022-08-16T09:51:54.938Z,8.90
2022-08-16T09:54:32.168Z,8.60
2022-08-16T09:57:01.438Z,8.52
2022-08-16T09:59:31.236Z,9.68
2022-08-16T10:02:26.239Z,10.88
2022-08-16T10:04:57.904Z,13.20
2022-08-16T10:07:55.820Z,16.65
2022-08-16T10:10:19.035Z,11.02
2022-08-16T10:13:16.242Z,10.48
2022-08-16T10:15:55.608Z,9.70
2022-08-16T10:19:00.232Z,9.00
2022-08-16T10:21:16.831Z,8.38
2022-08-16T10:23:46.474Z,11.05
2022-08-16T10:27:18.069Z,20.00
2022-08-16T10:29:05.782Z,19.38
2022-08-16T10:31:45.340Z,29.75
2022-08-16T10:34:31.597Z,68.30
2022-08-16T10:37:02.068Z,100.07
2022-08-16T10:39:32.972Z,83.10
2022-08-16T10:42:13.189Z,86.30
2022-08-16T10:44:42.686Z,86.53
2022-08-16T10:47:22.197Z,79.75
2022-08-16T10:49:52.013Z,81.88
2022-08-16T10:52:20.522Z,59.38
2022-08-16T10:55:37.282Z,50.22
2022-08-16T10:57:42.032Z,39.70
2022-08-16T11:00:22.565Z,33.83
2022-08-16T11:03:41.892Z,33.45
2022-08-16T11:05:59.950Z,28.20
2022-08-16T11:08:35.161Z,27.02
2022-08-16T11:11:11.773Z,35.05
2022-08-16T11:14:10.839Z,31.17
2022-08-16T11:19:26.122Z,27.13
2022-08-16T11:22:39.247Z,29.80
2022-08-16T11:25:11.465Z,30.17
2022-08-16T11:27:36.279Z,24.02
2022-08-16T11:30:12.130Z,27.27
2022-08-16T11:32:44.239Z,23.85
2022-08-16T11:35:16.592Z,23.98
2022-08-16T11:40:44.457Z,26.80
2022-08-16T11:43:16.760Z,24.85
2022-08-16T11:45:53.595Z,21.27
2022-08-16T11:48:24.135Z,23.70
2022-08-16T11:50:52.799Z,21.05
2022-08-16T11:53:24.288Z,20.15
2022-08-16T11:55:55.034Z,22.63
2022-08-16T11:58:26.060Z,20.27
2022-08-16T12:00:59.016Z,21.63
2022-08-16T12:03:35.376Z,20.08
2022-08-16T12:06:24.953Z,21.30
2022-08-16T12:09:02.152Z,20.80
2022-08-16T12:11:33.269Z,18.45
2022-08-16T12:14:04.622Z,17.65
2022-08-16T12:16:34.812Z,17.15
2022-08-16T12:19:04.631Z,21.45
2022-08-16T12:21:35.832Z,22.10
2022-08-16T12:24:23.992Z,20.17
2022-08-16T12:26:52.649Z,16.42
2022-08-16T12:29:22.777Z,19.05
2022-08-16T12:31:59.105Z,16.52
2022-08-16T12:34:50.530Z,17.23
2022-08-16T12:37:21.811Z,16.52
2022-08-16T12:39:56.173Z,17.30
2022-08-16T12:42:34.458Z,14.18
2022-08-16T12:45:05.742Z,19.50
2022-08-16T12:47:51.523Z,14.35
2022-08-16T12:50:32.981Z,14.98
2022-08-16T12:53:02.012Z,15.07
2022-08-16T12:55:41.648Z,12.50
2022-08-16T12:58:13.841Z,14.90
2022-08-16T13:00:59.562Z,14.63
2022-08-16T13:03:32.197Z,14.63
2022-08-16T13:06:08.292Z,14.70
2022-08-16T13:08:37.031Z,14.27
2022-08-16T13:11:08.118Z,13.10
2022-08-16T13:13:37.685Z,13.15
2022-08-16T13:16:15.274Z,15.35
2022-08-16T13:18:52.583Z,13.75
2022-08-16T13:21:23.311Z,12.73
2022-08-16T13:23:55.745Z,11.07
2022-08-16T13:26:26.752Z,11.00
2022-08-16T13:28:55.289Z,11.15
2022-08-16T13:31:24.070Z,10.75
2022-08-16T13:33:54.591Z,8.60
2022-08-16T13:39:18.199Z,10.45
2022-08-16T13:41:54.183Z,13.40
2022-08-16T13:44:48.687Z,9.50
2022-08-16T13:47:11.380Z,10.35
2022-08-16T13:49:41.313Z,9.63
2022-08-16T13:52:12.888Z,10.27
2022-08-16T13:54:41.583Z,8.77
2022-08-16T13:57:11.774Z,8.70
2022-08-16T13:59:40.985Z,11.60
2022-08-16T14:02:11.437Z,8.75
2022-08-16T14:04:42.847Z,9.85
2022-08-16T14:07:20.001Z,10.13
2022-08-16T14:09:55.333Z,8.98
2022-08-16T14:12:28.121Z,8.10
2022-08-16T14:14:57.588Z,8.73
2022-08-16T14:17:27.609Z,11.43
2022-08-16T14:19:59.751Z,7.57
2022-08-16T14:22:35.759Z,9.43
2022-08-16T14:25:16.394Z,11.20
2022-08-16T14:27:47.491Z,8.60
2022-08-16T14:30:19.334Z,9.75
2022-08-16T14:32:51.046Z,8.30
2022-08-16T14:35:36.399Z,9.63
2022-08-16T14:38:13.466Z,8.07
2022-08-16T14:40:52.496Z,10.23
2022-08-16T14:43:29.864Z,7.45
2022-08-16T14:45:59.372Z,9.45
2022-08-16T14:48:27.786Z,7.28
2022-08-16T14:50:56.509Z,8.00
2022-08-16T14:53:27.385Z,7.40
2022-08-16T14:55:56.242Z,7.95
2022-08-16T14:58:35.045Z,8.73
2022-08-16T15:01:10.094Z,10.90
2022-08-16T15:03:38.895Z,7.32
2022-08-16T15:06:14.348Z,8.23
2022-08-16T15:08:43.905Z,10.30
2022-08-16T15:11:14.274Z,8.75
2022-08-16T15:13:44.091Z,8.13
2022-08-16T15:16:12.290Z,7.75
2022-08-16T15:18:40.609Z,9.15
2022-08-16T15:21:09.575Z,7.90
2022-08-16T15:23:40.307Z,6.97
2022-08-16T15:26:09.511Z,6.57
2022-08-16T15:28:38.851Z,9.35
2022-08-16T15:31:13.647Z,7.05
2022-08-16T15:33:50.058Z,7.07
2022-08-16T15:36:22.599Z,8.35
2022-08-16T15:39:05.539Z,6.53
2022-08-16T15:42:03.567Z,7.10
2022-08-16T15:44:44.653Z,14.23
2022-08-16T15:47:26.014Z,6.43
2022-08-16T15:49:56.119Z,7.63
2022-08-16T15:52:30.680Z,5.60
2022-08-16T15:55:12.805Z,6.35
2022-08-16T15:57:41.913Z,7.10
2022-08-16T16:00:15.361Z,5.15
2022-08-16T16:02:46.766Z,6.60
2022-08-16T16:05:19.565Z,7.90
2022-08-16T16:07:56.872Z,5.93
2022-08-16T16:10:38.144Z,5.80
2022-08-16T16:13:09.585Z,6.10
2022-08-16T16:15:40.960Z,5.82
2022-08-16T16:18:12.239Z,6.78
2022-08-16T16:20:46.624Z,5.05
2022-08-16T16:23:18.885Z,5.82
2022-08-16T16:25:47.677Z,6.28
2022-08-16T16:29:08.272Z,7.28
2022-08-16T16:31:21.308Z,7.00
2022-08-16T16:33:55.896Z,6.00
2022-08-16T16:36:29.441Z,5.93
2022-08-16T16:38:58.415Z,5.50
2022-08-16T16:41:28.587Z,5.57
2022-08-16T16:44:01.014Z,5.95
2022-08-16T16:46:42.555Z,5.90
2022-08-16T16:49:15.090Z,5.40
2022-08-16T16:51:49.898Z,5.35
2022-08-16T16:54:27.768Z,5.30
2022-08-16T16:56:58.489Z,5.88
2022-08-16T16:59:28.028Z,6.20
2022-08-16T17:02:38.742Z,6.03
2022-08-16T17:04:49.012Z,5.40
2022-08-16T17:07:17.413Z,5.45
2022-08-16T17:09:47.281Z,5.50
2022-08-16T17:12:25.132Z,5.57
2022-08-16T17:15:07.396Z,5.18
2022-08-16T17:18:00.188Z,6.68
2022-08-16T17:20:29.246Z,5.75
2022-08-16T17:22:58.532Z,7.13
2022-08-16T17:25:36.425Z,5.53
2022-08-16T17:28:58.629Z,5.35
2022-08-16T17:30:56.674Z,6.68
2022-08-16T17:33:28.663Z,6.32
2022-08-16T17:36:08.671Z,6.05
2022-08-16T17:38:39.013Z,5.97
2022-08-16T17:41:13.845Z,5.70
2022-08-16T17:43:45.327Z,5.60
2022-08-16T17:46:51.034Z,5.68
2022-08-16T17:49:06.292Z,7.30
2022-08-16T17:51:35.988Z,5.65
2022-08-16T17:54:04.508Z,5.25
2022-08-16T17:56:33.569Z,6.28
2022-08-16T17:59:02.170Z,5.30
2022-08-16T18:01:30.602Z,5.35
2022-08-16T18:04:07.334Z,5.18
2022-08-16T18:06:39.908Z,5.95
2022-08-16T18:09:10.467Z,5.28
2022-08-16T18:11:44.514Z,6.43
2022-08-16T18:14:15.706Z,6.28
2022-08-16T18:16:46.309Z,5.40
2022-08-16T18:19:15.453Z,4.80
2022-08-16T18:22:02.922Z,5.70
2022-08-16T18:24:32.294Z,4.70
2022-08-16T18:27:25.560Z,5.18
2022-08-16T18:29:51.209Z,4.93
2022-08-16T18:32:22.026Z,6.30
2022-08-16T18:34:54.344Z,6.53
2022-08-16T18:37:24.984Z,6.18
2022-08-16T18:39:53.661Z,4.68
2022-08-16T18:42:22.357Z,5.88
2022-08-16T18:44:50.606Z,5.28
2022-08-16T18:47:20.236Z,5.63
2022-08-16T18:49:48.608Z,4.97
2022-08-16T18:52:25.128Z,4.80
2022-08-16T18:54:58.895Z,5.50
2022-08-16T18:57:42.148Z,5.25
2022-08-16T19:00:13.490Z,8.95
2022-08-16T19:02:58.436Z,4.65
2022-08-16T19:05:30.880Z,5.07
2022-08-16T19:07:59.348Z,7.07
2022-08-16T19:10:30.443Z,8.55
2022-08-16T19:12:59.529Z,6.55
2022-08-16T19:15:29.662Z,12.35
2022-08-16T19:17:58.299Z,8.60
2022-08-16T19:20:28.693Z,9.38
2022-08-16T19:23:05.126Z,6.05
2022-08-16T19:25:48.247Z,6.22
2022-08-16T19:28:50.465Z,7.45
2022-08-16T19:31:15.399Z,6.03
2022-08-16T19:33:53.741Z,7.28
2022-08-16T19:36:31.209Z,6.53
2022-08-16T19:39:04.589Z,5.88
2022-08-16T19:41:37.495Z,7.40
2022-08-16T19:44:06.918Z,5.68
2022-08-16T19:46:35.769Z,5.28
2022-08-16T19:49:04.546Z,7.10
2022-08-16T19:51:33.058Z,4.85
2022-08-16T19:54:01.362Z,7.10
2022-08-16T19:56:29.738Z,7.38
2022-08-16T19:59:18.809Z,7.22
2022-08-16T20:01:49.303Z,8.32
2022-08-16T20:04:17.816Z,14.57
2022-08-16T20:06:46.926Z,10.27
2022-08-16T20:09:15.785Z,7.30
2022-08-16T20:11:45.372Z,6.15
2022-08-16T20:14:24.269Z,12.07
2022-08-16T20:16:59.470Z,6.07
2022-08-16T20:19:29.836Z,8.77
2022-08-16T20:22:09.633Z,8.68
2022-08-16T20:24:39.139Z,9.05
2022-08-16T20:27:09.910Z,9.13
2022-08-16T20:29:43.512Z,6.32
2022-08-16T20:32:16.466Z,9.48
2022-08-16T20:34:46.989Z,9.32
2022-08-16T20:37:16.532Z,7.07
2022-08-16T20:39:46.230Z,6.05
2022-08-16T20:42:16.010Z,7.30
2022-08-16T20:44:46.195Z,7.15
2022-08-16T20:47:14.947Z,8.60
2022-08-16T20:49:43.361Z,8.57
2022-08-16T20:52:15.823Z,6.30
2022-08-16T20:54:45.576Z,7.00
2022-08-16T20:57:14.985Z,7.22
2022-08-16T20:59:49.843Z,7.38
2022-08-16T21:02:26.058Z,8.90
2022-08-16T21:04:55.268Z,7.28
2022-08-16T21:07:23.902Z,10.32
2022-08-16T21:09:52.383Z,8.35
2022-08-16T21:12:20.643Z,8.77
2022-08-16T21:14:50.803Z,8.45
2022-08-16T21:17:19.323Z,7.60
2022-08-16T21:19:47.676Z,7.50
2022-08-16T21:22:20.235Z,8.82
2022-08-16T21:24:53.883Z,8.65
2022-08-16T21:27:24.342Z,9.23
2022-08-16T21:29:54.685Z,7.65
2022-08-16T21:32:34.965Z,7.10
2022-08-16T21:35:09.897Z,7.43
2022-08-16T21:37:38.840Z,8.57
2022-08-16T21:40:09.652Z,10.20
2022-08-16T21:42:41.708Z,9.20
2022-08-16T21:45:15.102Z,7.18
2022-08-16T21:47:44.637Z,7.88
2022-08-16T21:50:14.271Z,10.43
2022-08-16T21:52:42.638Z,8.82
2022-08-16T21:55:11.484Z,9.85
2022-08-16T21:57:40.105Z,7.78
2022-08-16T22:00:14.827Z,8.02
2022-08-16T22:02:45.612Z,8.20
2022-08-16T22:05:16.316Z,8.25
2022-08-16T22:07:44.581Z,7.90
2022-08-16T22:11:04.922Z,8.07
2022-08-16T22:13:01.944Z,8.27
2022-08-16T22:15:31.802Z,9.73
2022-08-16T22:18:01.345Z,11.38
2022-08-16T22:20:30.972Z,8.15
2022-08-16T22:23:08.650Z,8.40
2022-08-16T22:25:38.157Z,8.68
2022-08-16T22:28:07.270Z,9.10
2022-08-16T22:30:37.441Z,8.43
2022-08-16T22:33:11.507Z,7.88
2022-08-16T22:35:49.469Z,7.85
2022-08-16T22:38:55.242Z,8.90
2022-08-16T22:41:07.434Z,8.60
2022-08-16T22:43:36.282Z,7.97
2022-08-16T22:46:06.682Z,9.65
2022-08-16T22:48:39.188Z,8.52
2022-08-16T22:51:09.672Z,8.07
2022-08-16T22:53:38.309Z,8.27
2022-08-16T22:56:07.277Z,8.73
2022-08-16T22:58:37.062Z,8.60
2022-08-16T23:01:09.833Z,7.93
2022-08-16T23:03:39.664Z,8.35
2022-08-16T23:06:10.553Z,8.35
2022-08-16T23:08:41.388Z,8.57
2022-08-16T23:11:12.758Z,8.10
2022-08-16T23:13:49.876Z,9.10
2022-08-16T23:16:33.662Z,9.05
2022-08-16T23:19:04.409Z,8.07
2022-08-16T23:21:33.003Z,7.93
2022-08-16T23:24:01.905Z,8.02
2022-08-16T23:26:46.735Z,7.30
2022-08-16T23:29:23.475Z,9.27
2022-08-16T23:31:58.594Z,8.23
2022-08-16T23:34:29.569Z,7.85
2022-08-16T23:36:58.336Z,8.07
2022-08-16T23:39:27.061Z,8.18
2022-08-16T23:41:55.713Z,8.20
2022-08-16T23:44:54.963Z,8.18
2022-08-16T23:47:14.718Z,7.95
2022-08-16T23:49:59.451Z,8.32
2022-08-16T23:52:53.877Z,9.43
2022-08-16T23:55:19.155Z,7.45
2022-08-16T23:57:47.808Z,8.07
